Menu Close Menu
Station Historical Data
Daily Summary for May 7, 2017 Units:  Metric    English   Both
« Previous Day
Next Day »
Daily Weekly Monthly Yearly Custom
  High: Low: Average:
Temperature: 19.9 °C 9.6 °C 14.3 °C
Dew Point: 10.9 °C 0.1 °C 6.1 °C
Humidity: 93% 28% 62%
Wind Speed: 3.2km/h 0km/h 0.2km/h
Wind Gust: 9.7km/h - -
Wind- - WSW
Pressure: 1018.2 hPa 1012.4 hPa -
Precipitation: 0 mm    
Historical Graphs
 
 
Tabular Data for May 7, 2017
Time Temperature Dew Point Pressure Wind Wind Speed Wind Gust Humidity Rainfall Rate (Hourly) solar Conditions
00:00 12.1 °C 9.8 °C 1012.4 hPa Calm     86% 0 mm WeatherDisplay:10.37 W/m2 SCT
00:15 12.1 °C 9.7 °C 1012.8 hPa Calm     85% 0 mm WeatherDisplay:10.37 W/m2 SCT
00:30 12.1 °C 9.7 °C 1012.8 hPa Calm     85% 0 mm WeatherDisplay:10.37 W/m2 SCT
00:45 11.9 °C 9.8 °C 1013.1 hPa Calm     87% 0 mm WeatherDisplay:10.37 W/m2 SCT
01:00 11.9 °C 9.8 °C 1013.1 hPa Calm     87% 0 mm WeatherDisplay:10.37 W/m2 SCT
01:15 11.8 °C 9.5 °C 1013.4 hPa Calm   1.6 km/h 86% 0 mm WeatherDisplay:10.37 W/m2 SCT
01:30 11.8 °C 9.5 °C 1013.4 hPa Calm     86% 0 mm WeatherDisplay:10.37 W/m2 SCT
01:45 11.8 °C 9.5 °C 1013.4 hPa Calm     86% 0 mm WeatherDisplay:10.37 W/m2 SCT
02:00 11.8 °C 9.5 °C 1013.4 hPa Calm     86% 0 mm WeatherDisplay:10.37 W/m2 SCT
02:15 11.4 °C 9.2 °C 1013.8 hPa Calm   1.6 km/h 86% 0 mm WeatherDisplay:10.37 W/m2 SCT
02:30 11.3 °C 9.1 °C 1013.8 hPa Calm   1.6 km/h 86% 0 mm WeatherDisplay:10.37 W/m2 SCT
02:45 11.2 °C 8.9 °C 1013.8 hPa Calm     86% 0 mm WeatherDisplay:10.37 W/m2 SCT
03:00 11.1 °C 8.8 °C 1014.1 hPa Calm     86% 0 mm WeatherDisplay:10.37 W/m2 SCT
03:15 10.8 °C 8.7 °C 1013.8 hPa Calm     87% 0 mm WeatherDisplay:10.37 W/m2 SCT
03:30 10.5 °C 8.4 °C 1013.8 hPa Calm     87% 0 mm WeatherDisplay:10.37 W/m2 SCT
03:45 11.8 °C 9.5 °C 1013.4 hPa Calm     86% 0 mm WeatherDisplay:10.37 W/m2 SCT
04:00 9.6 °C 7.9 °C 1013.8 hPa Calm     89% 0 mm WeatherDisplay:10.37 W/m2 SCT
04:15 9.6 °C 7.9 °C 1013.8 hPa Calm     89% 0 mm WeatherDisplay:10.37 W/m2 SCT
04:30 9.6 °C 7.9 °C 1014.1 hPa Calm     89% 0 mm WeatherDisplay:10.37 W/m2 SCT
04:45 9.6 °C 7.9 °C 1014.1 hPa Calm     89% 0 mm WeatherDisplay:10.37 W/m2 SCT
05:00 9.6 °C 7.9 °C 1014.1 hPa Calm     89% 0 mm WeatherDisplay:10.37 W/m2 SCT
05:15 9.6 °C 7.9 °C 1014.1 hPa Calm     89% 0 mm WeatherDisplay:10.37 W/m2 SCT
05:30 9.6 °C 7.9 °C 1014.1 hPa Calm     89% 0 mm WeatherDisplay:10.37 W/m2 SCT
05:45 9.6 °C 7.9 °C 1014.1 hPa Calm     89% 0 mm WeatherDisplay:10.37 W/m2 SCT
06:00 9.6 °C 7.9 °C 1014.4 hPa Calm     89% 0 mm WeatherDisplay:10.37 W/m2 SCT
06:15 9.6 °C 7.9 °C 1014.8 hPa Calm     89% 0 mm WeatherDisplay:10.37 W/m2 SCT
06:30 9.6 °C 7.9 °C 1014.8 hPa Calm     89% 0 mm WeatherDisplay:10.37 W/m2 SCT
06:45 9.6 °C 7.9 °C 1015.1 hPa Calm     89% 0 mm WeatherDisplay:10.37 W/m2 SCT
07:00 9.6 °C 7.9 °C 1015.5 hPa Calm     89% 0 mm WeatherDisplay:10.37 W/m2 SCT
07:15 9.6 °C 7.9 °C 1015.5 hPa Calm     89% 0 mm WeatherDisplay:10.37 W/m2 SCT
07:30 9.6 °C 7.9 °C 1015.5 hPa Calm     89% 0 mm WeatherDisplay:10.37 W/m2 SCT
07:45 9.6 °C 7.9 °C 1016.1 hPa Calm     89% 0 mm WeatherDisplay:10.37 W/m2 SCT
08:00 9.6 °C 8.5 °C 1016.5 hPa Calm     93% 0 mm WeatherDisplay:10.37 W/m2 SCT
08:15 10 °C 8.9 °C 1016.5 hPa Calm   1.6 km/h 93% 0 mm WeatherDisplay:10.37 W/m2 SCT
08:30 10 °C 8.9 °C 1016.5 hPa Calm     93% 0 mm WeatherDisplay:10.37 W/m2 SCT
08:45 10 °C 8.9 °C 1016.5 hPa Calm     93% 0 mm WeatherDisplay:10.37 W/m2 SCT
09:00 11.8 °C 8.1 °C 1017.2 hPa Calm   6.4 km/h 78% 0 mm WeatherDisplay:10.37 W/m2 SCT
09:15 12.6 °C 8.1 °C 1017.2 hPa Calm   8 km/h 74% 0 mm WeatherDisplay:10.37 W/m2 SCT
09:30 13.6 °C 7.3 °C 1017.5 hPa Calm   3.2 km/h 66% 0 mm WeatherDisplay:10.37 W/m2 SCT
09:45 13.7 °C 5.6 °C 1017.5 hPa Calm   8 km/h 58% 0 mm WeatherDisplay:10.37 W/m2 SCT
10:00 14.2 °C 6.1 °C 1017.8 hPa Calm   3.2 km/h 58% 0 mm WeatherDisplay:10.37 W/m2 SCT
10:15 15.5 °C 10.9 °C 1017.8 hPa Calm     74% 0 mm WeatherDisplay:10.37 W/m2 SCT
10:30 15.4 °C 3.9 °C 1018.2 hPa WSW 1.6 km/h 4.8 km/h 46% 0 mm WeatherDisplay:10.37 W/m2 SCT
10:45 15.7 °C 5 °C 1018.2 hPa SSW 3.2 km/h 3.2 km/h 49% 0 mm WeatherDisplay:10.37 W/m2 SCT
11:00 15.7 °C 3.5 °C 1018.2 hPa SW 1.6 km/h 4.8 km/h 44% 0 mm WeatherDisplay:10.37 W/m2 SCT
11:15 15.8 °C 2.9 °C 1018.2 hPa West 1.6 km/h 8 km/h 42% 0 mm WeatherDisplay:10.37 W/m2 SCT
11:30 15.6 °C 3.4 °C 1018.2 hPa Calm     44% 0 mm WeatherDisplay:10.37 W/m2 SCT
11:45 16.2 °C 1.8 °C 1018.2 hPa SW 1.6 km/h 8 km/h 38% 0 mm WeatherDisplay:10.37 W/m2 SCT
12:00 15.6 °C 3.4 °C 1018.2 hPa Calm     44% 0 mm WeatherDisplay:10.37 W/m2 SCT
12:15 17.2 °C 2.8 °C 1018.2 hPa NW 1.6 km/h 8 km/h 38% 0 mm WeatherDisplay:10.37 W/m2 SCT
12:30 17.7 °C 1.6 °C 1018.2 hPa Calm   8 km/h 34% 0 mm WeatherDisplay:10.37 W/m2 SCT
12:45 15.6 °C 3.4 °C 1018.2 hPa Calm     44% 0 mm WeatherDisplay:10.37 W/m2 SCT
13:00 15.6 °C 3.4 °C 1018.2 hPa Calm     44% 0 mm WeatherDisplay:10.37 W/m2 SCT
13:15 15.6 °C 3.4 °C 1018.2 hPa Calm     44% 0 mm WeatherDisplay:10.37 W/m2 SCT
13:30 19.1 °C 0.1 °C 1017.5 hPa SSW 1.6 km/h 4.8 km/h 28% 0 mm WeatherDisplay:10.37 W/m2 SCT
13:45 19.3 °C 3.8 °C 1017.5 hPa Calm   8 km/h 36% 0 mm WeatherDisplay:10.37 W/m2 SCT
14:00 19.6 °C 0.6 °C 1017.5 hPa ESE 1.6 km/h 8 km/h 28% 0 mm WeatherDisplay:10.37 W/m2 SCT
14:15 19.2 °C 2.1 °C 1017.2 hPa Calm   8 km/h 32% 0 mm WeatherDisplay:10.37 W/m2 SCT
14:30 18.8 °C 1.3 °C 1017.2 hPa Calm   8 km/h 31% 0 mm WeatherDisplay:10.37 W/m2 SCT
14:45 18.7 °C 1.2 °C 1017.2 hPa Calm     31% 0 mm WeatherDisplay:10.37 W/m2 SCT
15:00 18.8 °C 1.8 °C 1017.2 hPa Calm   8 km/h 32% 0 mm WeatherDisplay:10.37 W/m2 SCT
15:15 18.8 °C 0.9 °C 1017.2 hPa Calm   9.7 km/h 30% 0 mm WeatherDisplay:10.37 W/m2 SCT
15:30 18.9 °C 2.7 °C 1016.8 hPa Calm   8 km/h 34% 0 mm WeatherDisplay:10.37 W/m2 SCT
15:45 18.9 °C 3.1 °C 1016.5 hPa Calm   8 km/h 35% 0 mm WeatherDisplay:10.37 W/m2 SCT
16:00 18.8 °C 0.8 °C 1017.2 hPa NNW 1.6 km/h   30% 0 mm WeatherDisplay:10.37 W/m2 SCT
16:15 18.9 °C 2.7 °C 1016.1 hPa Calm   4.8 km/h 34% 0 mm WeatherDisplay:10.37 W/m2 SCT
16:30 18.8 °C 0.8 °C 1017.2 hPa NNW 1.6 km/h   30% 0 mm WeatherDisplay:10.37 W/m2 SCT
16:45 18.8 °C 0.8 °C 1017.2 hPa NNW 1.6 km/h   30% 0 mm WeatherDisplay:10.37 W/m2 SCT
17:00 19.5 °C 4.4 °C 1016.1 hPa Calm   8 km/h 37% 0 mm WeatherDisplay:10.37 W/m2 SCT
17:15 19.9 °C 4.8 °C 1016.1 hPa Calm   8 km/h 37% 0 mm WeatherDisplay:10.37 W/m2 SCT
17:30 19.6 °C 4.1 °C 1016.1 hPa Calm     36% 0 mm WeatherDisplay:10.37 W/m2 SCT
17:45 19.6 °C 4.1 °C 1016.1 hPa Calm     36% 0 mm WeatherDisplay:10.37 W/m2 SCT
18:00 19.3 °C 4.2 °C 1015.8 hPa Calm   3.2 km/h 37% 0 mm WeatherDisplay:10.37 W/m2 SCT
18:15 19.3 °C 4.2 °C 1015.8 hPa Calm     37% 0 mm WeatherDisplay:10.37 W/m2 SCT
18:30 19.3 °C 4.2 °C 1015.8 hPa Calm     37% 0 mm WeatherDisplay:10.37 W/m2 SCT
18:45 18.7 °C 4.8 °C 1015.8 hPa Calm   1.6 km/h 40% 0 mm WeatherDisplay:10.37 W/m2 SCT
19:00 18.6 °C 5 °C 1015.8 hPa Calm   1.6 km/h 41% 0 mm WeatherDisplay:10.37 W/m2 SCT
19:15 18.1 °C 5.6 °C 1015.8 hPa Calm   1.6 km/h 44% 0 mm WeatherDisplay:10.37 W/m2 SCT
19:30 17.8 °C 5.7 °C 1015.8 hPa Calm   3.2 km/h 45% 0 mm WeatherDisplay:10.37 W/m2 SCT
19:45 17.6 °C 5.8 °C 1015.8 hPa Calm   1.6 km/h 46% 0 mm WeatherDisplay:10.37 W/m2 SCT
20:00 17.1 °C 6.3 °C 1015.8 hPa Calm     49% 0 mm WeatherDisplay:10.37 W/m2 SCT
20:15 18.1 °C 5.6 °C 1015.8 hPa Calm     44% 0 mm WeatherDisplay:10.37 W/m2 SCT
20:30 18.1 °C 5.6 °C 1015.8 hPa Calm     44% 0 mm WeatherDisplay:10.37 W/m2 SCT
20:45 15.6 °C 6.6 °C 1016.1 hPa Calm     55% 0 mm WeatherDisplay:10.37 W/m2 SCT
21:00 15.1 °C 6.6 °C 1016.5 hPa Calm     57% 0 mm WeatherDisplay:10.37 W/m2 SCT
21:15 15.6 °C 6.6 °C 1016.1 hPa Calm     55% 0 mm WeatherDisplay:10.37 W/m2 SCT
21:30 14.3 °C 6.9 °C 1016.5 hPa Calm     61% 0 mm WeatherDisplay:10.37 W/m2 SCT
21:45 14.5 °C 7.1 °C 1016.5 hPa Calm     61% 0 mm WeatherDisplay:10.37 W/m2 SCT
22:00 13.8 °C 7.1 °C 1016.8 hPa Calm     64% 0 mm WeatherDisplay:10.37 W/m2 SCT
22:15 13.7 °C 7.1 °C 1016.8 hPa Calm     64% 0 mm WeatherDisplay:10.37 W/m2 SCT
22:30 13.3 °C 6.6 °C 1017.2 hPa Calm     64% 0 mm WeatherDisplay:10.37 W/m2 SCT
22:45 12.8 °C 6.8 °C 1017.2 hPa Calm     67% 0 mm WeatherDisplay:10.37 W/m2 SCT
23:00 12.7 °C 6.9 °C 1017.2 hPa Calm     68% 0 mm WeatherDisplay:10.37 W/m2 SCT
23:15 12.6 °C 7.2 °C 1017.2 hPa Calm     70% 0 mm WeatherDisplay:10.37 W/m2 SCT
23:30 12.3 °C 7.4 °C 1017.2 hPa Calm     72% 0 mm WeatherDisplay:10.37 W/m2 SCT
23:45 12 °C 7.3 °C 1017.2 hPa Calm     73% 0 mm WeatherDisplay:10.37 W/m2 SCT
Piedmont Bend
Compliments of Weather Underground - 4 mb